sensor_id;sensor_type;location;lat;lon;timestamp;P1;durP1;ratioP1;P2;durP2;ratioP2
22172;SDS011;11252;50.596;17.648;2022-08-19T00:02:13;15.13;;;9.25;;
22172;SDS011;11252;50.596;17.648;2022-08-19T00:04:41;12.00;;;8.60;;
22172;SDS011;11252;50.596;17.648;2022-08-19T00:07:08;11.57;;;9.20;;
22172;SDS011;11252;50.596;17.648;2022-08-19T00:09:35;10.85;;;8.98;;
22172;SDS011;11252;50.596;17.648;2022-08-19T00:12:03;10.35;;;9.27;;
22172;SDS011;11252;50.596;17.648;2022-08-19T00:14:30;16.90;;;8.40;;
22172;SDS011;11252;50.596;17.648;2022-08-19T00:16:58;9.73;;;8.68;;
22172;SDS011;11252;50.596;17.648;2022-08-19T00:19:26;9.20;;;7.70;;
22172;SDS011;11252;50.596;17.648;2022-08-19T00:21:54;9.45;;;8.55;;
22172;SDS011;11252;50.596;17.648;2022-08-19T00:24:22;9.75;;;8.23;;
22172;SDS011;11252;50.596;17.648;2022-08-19T00:26:50;13.43;;;8.52;;
22172;SDS011;11252;50.596;17.648;2022-08-19T00:29:19;11.48;;;8.18;;
22172;SDS011;11252;50.596;17.648;2022-08-19T00:31:47;13.40;;;8.93;;
22172;SDS011;11252;50.596;17.648;2022-08-19T00:34:16;9.80;;;8.07;;
22172;SDS011;11252;50.596;17.648;2022-08-19T00:36:44;9.85;;;7.90;;
22172;SDS011;11252;50.596;17.648;2022-08-19T00:39:12;11.60;;;8.55;;
22172;SDS011;11252;50.596;17.648;2022-08-19T00:41:41;11.68;;;9.23;;
22172;SDS011;11252;50.596;17.648;2022-08-19T00:46:40;11.30;;;8.93;;
22172;SDS011;11252;50.596;17.648;2022-08-19T00:52:09;12.57;;;9.00;;
22172;SDS011;11252;50.596;17.648;2022-08-19T00:54:41;12.80;;;8.88;;
22172;SDS011;11252;50.596;17.648;2022-08-19T00:57:10;11.07;;;9.38;;
22172;SDS011;11252;50.596;17.648;2022-08-19T00:59:42;12.48;;;9.02;;
22172;SDS011;11252;50.596;17.648;2022-08-19T01:02:27;10.52;;;9.40;;
22172;SDS011;11252;50.596;17.648;2022-08-19T01:04:55;10.57;;;9.48;;
22172;SDS011;11252;50.596;17.648;2022-08-19T01:07:24;11.43;;;9.18;;
22172;SDS011;11252;50.596;17.648;2022-08-19T01:09:51;10.05;;;9.13;;
22172;SDS011;11252;50.596;17.648;2022-08-19T01:12:19;11.43;;;9.15;;
22172;SDS011;11252;50.596;17.648;2022-08-19T01:14:48;14.82;;;9.77;;
22172;SDS011;11252;50.596;17.648;2022-08-19T01:17:16;11.05;;;9.85;;
22172;SDS011;11252;50.596;17.648;2022-08-19T01:19:45;10.75;;;9.75;;
22172;SDS011;11252;50.596;17.648;2022-08-19T01:25:01;11.70;;;9.63;;
22172;SDS011;11252;50.596;17.648;2022-08-19T01:27:40;11.52;;;10.00;;
22172;SDS011;11252;50.596;17.648;2022-08-19T01:30:21;14.93;;;9.93;;
22172;SDS011;11252;50.596;17.648;2022-08-19T01:32:51;11.77;;;10.50;;
22172;SDS011;11252;50.596;17.648;2022-08-19T01:35:21;15.82;;;10.27;;
22172;SDS011;11252;50.596;17.648;2022-08-19T01:37:51;12.23;;;9.73;;
22172;SDS011;11252;50.596;17.648;2022-08-19T01:40:27;11.88;;;10.15;;
22172;SDS011;11252;50.596;17.648;2022-08-19T01:42:57;14.82;;;10.02;;
22172;SDS011;11252;50.596;17.648;2022-08-19T01:45:26;13.45;;;10.43;;
22172;SDS011;11252;50.596;17.648;2022-08-19T01:47:55;11.52;;;10.27;;
22172;SDS011;11252;50.596;17.648;2022-08-19T01:50:28;12.82;;;9.93;;
22172;SDS011;11252;50.596;17.648;2022-08-19T01:52:57;14.75;;;10.70;;
22172;SDS011;11252;50.596;17.648;2022-08-19T01:55:33;11.93;;;10.68;;
22172;SDS011;11252;50.596;17.648;2022-08-19T01:58:08;15.05;;;11.20;;
22172;SDS011;11252;50.596;17.648;2022-08-19T02:00:42;11.40;;;10.32;;
22172;SDS011;11252;50.596;17.648;2022-08-19T02:03:10;15.50;;;10.48;;
22172;SDS011;11252;50.596;17.648;2022-08-19T02:05:38;11.88;;;10.65;;
22172;SDS011;11252;50.596;17.648;2022-08-19T02:08:06;14.50;;;10.32;;
22172;SDS011;11252;50.596;17.648;2022-08-19T02:10:37;11.68;;;10.60;;
22172;SDS011;11252;50.596;17.648;2022-08-19T02:13:07;17.17;;;10.27;;
22172;SDS011;11252;50.596;17.648;2022-08-19T02:15:36;11.07;;;9.55;;
22172;SDS011;11252;50.596;17.648;2022-08-19T02:18:03;13.23;;;10.48;;
22172;SDS011;11252;50.596;17.648;2022-08-19T02:20:32;15.55;;;11.10;;
22172;SDS011;11252;50.596;17.648;2022-08-19T02:23:00;12.18;;;10.55;;
22172;SDS011;11252;50.596;17.648;2022-08-19T02:25:27;13.13;;;11.18;;
22172;SDS011;11252;50.596;17.648;2022-08-19T02:27:55;15.40;;;11.20;;
22172;SDS011;11252;50.596;17.648;2022-08-19T02:30:23;12.68;;;10.18;;
22172;SDS011;11252;50.596;17.648;2022-08-19T02:32:51;11.82;;;10.55;;
22172;SDS011;11252;50.596;17.648;2022-08-19T02:35:19;11.48;;;10.35;;
22172;SDS011;11252;50.596;17.648;2022-08-19T02:37:47;12.95;;;10.77;;
22172;SDS011;11252;50.596;17.648;2022-08-19T02:40:33;12.07;;;10.77;;
22172;SDS011;11252;50.596;17.648;2022-08-19T02:43:05;13.63;;;10.88;;
22172;SDS011;11252;50.596;17.648;2022-08-19T02:45:35;13.80;;;11.13;;
22172;SDS011;11252;50.596;17.648;2022-08-19T02:48:06;13.10;;;11.52;;
22172;SDS011;11252;50.596;17.648;2022-08-19T02:50:47;15.20;;;10.88;;
22172;SDS011;11252;50.596;17.648;2022-08-19T02:53:22;12.43;;;11.20;;
22172;SDS011;11252;50.596;17.648;2022-08-19T02:55:50;14.05;;;10.93;;
22172;SDS011;11252;50.596;17.648;2022-08-19T02:58:18;14.50;;;12.02;;
22172;SDS011;11252;50.596;17.648;2022-08-19T03:00:49;12.18;;;10.98;;
22172;SDS011;11252;50.596;17.648;2022-08-19T03:03:19;14.07;;;11.60;;
22172;SDS011;11252;50.596;17.648;2022-08-19T03:05:47;13.63;;;11.10;;
22172;SDS011;11252;50.596;17.648;2022-08-19T03:08:22;16.00;;;11.68;;
22172;SDS011;11252;50.596;17.648;2022-08-19T03:10:50;13.45;;;12.15;;
22172;SDS011;11252;50.596;17.648;2022-08-19T03:13:19;17.80;;;12.70;;
22172;SDS011;11252;50.596;17.648;2022-08-19T03:15:47;13.68;;;12.38;;
22172;SDS011;11252;50.596;17.648;2022-08-19T03:18:15;13.35;;;12.05;;
22172;SDS011;11252;50.596;17.648;2022-08-19T03:20:44;13.13;;;11.70;;
22172;SDS011;11252;50.596;17.648;2022-08-19T03:23:15;17.63;;;12.85;;
22172;SDS011;11252;50.596;17.648;2022-08-19T03:25:45;13.38;;;11.95;;
22172;SDS011;11252;50.596;17.648;2022-08-19T03:28:34;14.52;;;12.85;;
22172;SDS011;11252;50.596;17.648;2022-08-19T03:31:07;15.30;;;12.27;;
22172;SDS011;11252;50.596;17.648;2022-08-19T03:33:59;17.45;;;12.88;;
22172;SDS011;11252;50.596;17.648;2022-08-19T03:36:28;15.10;;;13.07;;
22172;SDS011;11252;50.596;17.648;2022-08-19T03:38:57;13.60;;;12.20;;
22172;SDS011;11252;50.596;17.648;2022-08-19T03:41:30;14.38;;;12.93;;
22172;SDS011;11252;50.596;17.648;2022-08-19T03:44:10;12.77;;;11.60;;
22172;SDS011;11252;50.596;17.648;2022-08-19T03:46:44;13.60;;;11.88;;
22172;SDS011;11252;50.596;17.648;2022-08-19T03:49:13;14.63;;;12.63;;
22172;SDS011;11252;50.596;17.648;2022-08-19T03:51:43;14.60;;;11.50;;
22172;SDS011;11252;50.596;17.648;2022-08-19T03:54:13;13.93;;;12.43;;
22172;SDS011;11252;50.596;17.648;2022-08-19T03:56:42;17.60;;;13.05;;
22172;SDS011;11252;50.596;17.648;2022-08-19T03:59:14;13.50;;;11.63;;
22172;SDS011;11252;50.596;17.648;2022-08-19T04:01:43;12.75;;;11.45;;
22172;SDS011;11252;50.596;17.648;2022-08-19T04:04:11;14.82;;;11.35;;
22172;SDS011;11252;50.596;17.648;2022-08-19T04:06:39;12.82;;;11.52;;
22172;SDS011;11252;50.596;17.648;2022-08-19T04:09:08;18.25;;;11.43;;
22172;SDS011;11252;50.596;17.648;2022-08-19T04:11:38;15.30;;;11.00;;
22172;SDS011;11252;50.596;17.648;2022-08-19T04:14:17;13.07;;;11.35;;
22172;SDS011;11252;50.596;17.648;2022-08-19T04:16:48;12.85;;;11.15;;
22172;SDS011;11252;50.596;17.648;2022-08-19T04:19:16;18.65;;;11.68;;
22172;SDS011;11252;50.596;17.648;2022-08-19T04:21:46;15.60;;;11.93;;
22172;SDS011;11252;50.596;17.648;2022-08-19T04:24:15;15.40;;;12.18;;
22172;SDS011;11252;50.596;17.648;2022-08-19T04:26:43;15.05;;;13.13;;
22172;SDS011;11252;50.596;17.648;2022-08-19T04:29:15;12.57;;;11.27;;
22172;SDS011;11252;50.596;17.648;2022-08-19T04:31:48;13.10;;;11.70;;
22172;SDS011;11252;50.596;17.648;2022-08-19T04:34:17;13.75;;;12.38;;
22172;SDS011;11252;50.596;17.648;2022-08-19T04:36:51;12.57;;;11.38;;
22172;SDS011;11252;50.596;17.648;2022-08-19T04:39:21;14.43;;;12.23;;
22172;SDS011;11252;50.596;17.648;2022-08-19T04:42:11;18.90;;;13.35;;
22172;SDS011;11252;50.596;17.648;2022-08-19T04:44:58;17.55;;;12.48;;
22172;SDS011;11252;50.596;17.648;2022-08-19T04:47:26;15.23;;;11.75;;
22172;SDS011;11252;50.596;17.648;2022-08-19T04:50:14;15.70;;;11.80;;
22172;SDS011;11252;50.596;17.648;2022-08-19T04:52:41;18.73;;;11.65;;
22172;SDS011;11252;50.596;17.648;2022-08-19T04:55:10;15.13;;;12.27;;
22172;SDS011;11252;50.596;17.648;2022-08-19T04:57:38;13.57;;;11.88;;
22172;SDS011;11252;50.596;17.648;2022-08-19T05:00:12;17.15;;;12.05;;
22172;SDS011;11252;50.596;17.648;2022-08-19T05:02:40;16.85;;;11.93;;
22172;SDS011;11252;50.596;17.648;2022-08-19T05:05:08;13.95;;;11.43;;
22172;SDS011;11252;50.596;17.648;2022-08-19T05:07:36;18.75;;;11.70;;
22172;SDS011;11252;50.596;17.648;2022-08-19T05:10:04;15.50;;;13.05;;
22172;SDS011;11252;50.596;17.648;2022-08-19T05:12:32;14.40;;;11.30;;
22172;SDS011;11252;50.596;17.648;2022-08-19T05:15:01;12.63;;;11.30;;
22172;SDS011;11252;50.596;17.648;2022-08-19T05:17:30;12.85;;;11.02;;
22172;SDS011;11252;50.596;17.648;2022-08-19T05:20:04;13.15;;;10.85;;
22172;SDS011;11252;50.596;17.648;2022-08-19T05:22:52;12.57;;;11.02;;
22172;SDS011;11252;50.596;17.648;2022-08-19T05:25:20;12.20;;;10.98;;
22172;SDS011;11252;50.596;17.648;2022-08-19T05:27:48;12.48;;;11.20;;
22172;SDS011;11252;50.596;17.648;2022-08-19T05:30:16;14.43;;;10.77;;
22172;SDS011;11252;50.596;17.648;2022-08-19T05:32:59;13.68;;;10.73;;
22172;SDS011;11252;50.596;17.648;2022-08-19T05:35:26;15.15;;;10.70;;
22172;SDS011;11252;50.596;17.648;2022-08-19T05:38:00;18.40;;;10.93;;
22172;SDS011;11252;50.596;17.648;2022-08-19T05:40:27;13.68;;;10.30;;
22172;SDS011;11252;50.596;17.648;2022-08-19T05:42:56;12.70;;;11.35;;
22172;SDS011;11252;50.596;17.648;2022-08-19T05:45:24;13.63;;;10.80;;
22172;SDS011;11252;50.596;17.648;2022-08-19T05:47:52;11.20;;;9.80;;
22172;SDS011;11252;50.596;17.648;2022-08-19T05:50:19;13.10;;;10.48;;
22172;SDS011;11252;50.596;17.648;2022-08-19T05:52:47;15.63;;;10.85;;
22172;SDS011;11252;50.596;17.648;2022-08-19T05:55:16;17.13;;;10.32;;
22172;SDS011;11252;50.596;17.648;2022-08-19T05:57:46;16.75;;;10.00;;
22172;SDS011;11252;50.596;17.648;2022-08-19T06:00:14;18.10;;;9.77;;
22172;SDS011;11252;50.596;17.648;2022-08-19T06:02:46;17.85;;;9.63;;
22172;SDS011;11252;50.596;17.648;2022-08-19T06:05:14;14.48;;;9.50;;
22172;SDS011;11252;50.596;17.648;2022-08-19T06:07:41;15.63;;;9.13;;
22172;SDS011;11252;50.596;17.648;2022-08-19T06:10:09;16.55;;;9.10;;
22172;SDS011;11252;50.596;17.648;2022-08-19T06:12:38;15.02;;;9.10;;
22172;SDS011;11252;50.596;17.648;2022-08-19T06:15:09;13.23;;;8.90;;
22172;SDS011;11252;50.596;17.648;2022-08-19T06:17:39;11.30;;;8.75;;
22172;SDS011;11252;50.596;17.648;2022-08-19T06:20:13;12.18;;;8.75;;
22172;SDS011;11252;50.596;17.648;2022-08-19T06:22:42;12.70;;;8.90;;
22172;SDS011;11252;50.596;17.648;2022-08-19T06:25:12;11.07;;;8.98;;
22172;SDS011;11252;50.596;17.648;2022-08-19T06:27:40;15.05;;;8.88;;
22172;SDS011;11252;50.596;17.648;2022-08-19T06:30:28;12.35;;;8.27;;
22172;SDS011;11252;50.596;17.648;2022-08-19T06:32:56;11.23;;;8.30;;
22172;SDS011;11252;50.596;17.648;2022-08-19T06:35:23;14.90;;;7.88;;
22172;SDS011;11252;50.596;17.648;2022-08-19T06:37:51;11.48;;;7.53;;
22172;SDS011;11252;50.596;17.648;2022-08-19T06:40:20;10.82;;;7.90;;
22172;SDS011;11252;50.596;17.648;2022-08-19T06:42:48;14.00;;;7.47;;
22172;SDS011;11252;50.596;17.648;2022-08-19T06:45:21;7.70;;;6.90;;
22172;SDS011;11252;50.596;17.648;2022-08-19T06:47:59;9.55;;;7.57;;
22172;SDS011;11252;50.596;17.648;2022-08-19T06:50:28;19.38;;;7.65;;
22172;SDS011;11252;50.596;17.648;2022-08-19T06:52:55;11.73;;;7.40;;
22172;SDS011;11252;50.596;17.648;2022-08-19T06:55:26;13.30;;;8.20;;
22172;SDS011;11252;50.596;17.648;2022-08-19T06:58:01;9.80;;;7.82;;
22172;SDS011;11252;50.596;17.648;2022-08-19T07:00:30;11.30;;;7.00;;
22172;SDS011;11252;50.596;17.648;2022-08-19T07:02:59;8.60;;;7.20;;
22172;SDS011;11252;50.596;17.648;2022-08-19T07:05:37;11.38;;;7.82;;
22172;SDS011;11252;50.596;17.648;2022-08-19T07:08:11;14.00;;;7.35;;
22172;SDS011;11252;50.596;17.648;2022-08-19T07:10:42;8.48;;;7.68;;
22172;SDS011;11252;50.596;17.648;2022-08-19T07:13:11;13.48;;;6.75;;
22172;SDS011;11252;50.596;17.648;2022-08-19T07:15:38;18.23;;;10.20;;
22172;SDS011;11252;50.596;17.648;2022-08-19T07:18:08;10.40;;;6.88;;
22172;SDS011;11252;50.596;17.648;2022-08-19T07:20:40;15.00;;;7.18;;
22172;SDS011;11252;50.596;17.648;2022-08-19T07:23:10;10.07;;;6.95;;
22172;SDS011;11252;50.596;17.648;2022-08-19T07:25:43;12.35;;;7.25;;
22172;SDS011;11252;50.596;17.648;2022-08-19T07:28:18;10.52;;;6.80;;
22172;SDS011;11252;50.596;17.648;2022-08-19T07:30:50;13.30;;;6.93;;
22172;SDS011;11252;50.596;17.648;2022-08-19T07:33:19;12.88;;;6.78;;
22172;SDS011;11252;50.596;17.648;2022-08-19T07:35:47;9.52;;;6.30;;
22172;SDS011;11252;50.596;17.648;2022-08-19T07:38:18;13.82;;;7.82;;
22172;SDS011;11252;50.596;17.648;2022-08-19T07:40:45;13.45;;;7.10;;
22172;SDS011;11252;50.596;17.648;2022-08-19T07:43:13;11.80;;;6.60;;
22172;SDS011;11252;50.596;17.648;2022-08-19T07:45:56;16.08;;;6.80;;
22172;SDS011;11252;50.596;17.648;2022-08-19T07:48:26;7.75;;;6.63;;
22172;SDS011;11252;50.596;17.648;2022-08-19T07:50:54;12.98;;;7.00;;
22172;SDS011;11252;50.596;17.648;2022-08-19T07:53:24;10.98;;;6.60;;
22172;SDS011;11252;50.596;17.648;2022-08-19T07:55:51;12.95;;;6.03;;
22172;SDS011;11252;50.596;17.648;2022-08-19T07:58:20;12.10;;;6.22;;
22172;SDS011;11252;50.596;17.648;2022-08-19T08:00:49;10.77;;;6.22;;
22172;SDS011;11252;50.596;17.648;2022-08-19T08:03:18;8.50;;;5.57;;
22172;SDS011;11252;50.596;17.648;2022-08-19T08:05:47;10.75;;;5.63;;
22172;SDS011;11252;50.596;17.648;2022-08-19T08:08:33;15.63;;;6.22;;
22172;SDS011;11252;50.596;17.648;2022-08-19T08:11:19;9.30;;;6.03;;
22172;SDS011;11252;50.596;17.648;2022-08-19T08:13:49;8.50;;;5.05;;
22172;SDS011;11252;50.596;17.648;2022-08-19T08:16:30;12.55;;;5.95;;
22172;SDS011;11252;50.596;17.648;2022-08-19T08:19:13;7.32;;;5.55;;
22172;SDS011;11252;50.596;17.648;2022-08-19T08:21:53;18.77;;;6.05;;
22172;SDS011;11252;50.596;17.648;2022-08-19T08:24:22;10.10;;;5.65;;
22172;SDS011;11252;50.596;17.648;2022-08-19T08:26:54;10.77;;;5.55;;
22172;SDS011;11252;50.596;17.648;2022-08-19T08:29:23;12.15;;;5.63;;
22172;SDS011;11252;50.596;17.648;2022-08-19T08:31:59;16.20;;;5.55;;
22172;SDS011;11252;50.596;17.648;2022-08-19T08:34:28;13.85;;;5.60;;
22172;SDS011;11252;50.596;17.648;2022-08-19T08:36:55;10.52;;;4.70;;
22172;SDS011;11252;50.596;17.648;2022-08-19T08:39:23;9.27;;;5.43;;
22172;SDS011;11252;50.596;17.648;2022-08-19T08:41:57;12.23;;;5.55;;
22172;SDS011;11252;50.596;17.648;2022-08-19T08:44:44;11.63;;;5.32;;
22172;SDS011;11252;50.596;17.648;2022-08-19T08:47:26;10.60;;;4.55;;
22172;SDS011;11252;50.596;17.648;2022-08-19T08:52:32;18.02;;;4.80;;
22172;SDS011;11252;50.596;17.648;2022-08-19T08:55:07;8.85;;;4.93;;
22172;SDS011;11252;50.596;17.648;2022-08-19T09:00:17;11.48;;;4.38;;
22172;SDS011;11252;50.596;17.648;2022-08-19T09:02:54;8.23;;;4.05;;
22172;SDS011;11252;50.596;17.648;2022-08-19T09:05:25;11.85;;;5.95;;
22172;SDS011;11252;50.596;17.648;2022-08-19T09:08:21;12.60;;;3.53;;
22172;SDS011;11252;50.596;17.648;2022-08-19T09:10:51;13.10;;;4.07;;
22172;SDS011;11252;50.596;17.648;2022-08-19T09:16:09;12.25;;;3.67;;
22172;SDS011;11252;50.596;17.648;2022-08-19T09:21:07;9.40;;;3.47;;
22172;SDS011;11252;50.596;17.648;2022-08-19T09:23:35;11.73;;;3.75;;
22172;SDS011;11252;50.596;17.648;2022-08-19T09:26:10;11.63;;;3.15;;
22172;SDS011;11252;50.596;17.648;2022-08-19T09:28:42;10.10;;;3.42;;
22172;SDS011;11252;50.596;17.648;2022-08-19T09:31:14;10.85;;;3.05;;
22172;SDS011;11252;50.596;17.648;2022-08-19T09:33:45;12.90;;;3.75;;
22172;SDS011;11252;50.596;17.648;2022-08-19T09:36:19;16.23;;;3.55;;
22172;SDS011;11252;50.596;17.648;2022-08-19T09:39:00;8.68;;;4.43;;
22172;SDS011;11252;50.596;17.648;2022-08-19T09:41:27;11.77;;;3.83;;
22172;SDS011;11252;50.596;17.648;2022-08-19T09:43:56;8.95;;;3.45;;
22172;SDS011;11252;50.596;17.648;2022-08-19T09:46:26;15.23;;;6.40;;
22172;SDS011;11252;50.596;17.648;2022-08-19T09:48:56;13.95;;;3.70;;
22172;SDS011;11252;50.596;17.648;2022-08-19T09:51:31;14.63;;;4.00;;
22172;SDS011;11252;50.596;17.648;2022-08-19T09:54:01;12.40;;;3.72;;
22172;SDS011;11252;50.596;17.648;2022-08-19T09:56:31;9.73;;;3.58;;
22172;SDS011;11252;50.596;17.648;2022-08-19T09:59:00;13.32;;;3.80;;
22172;SDS011;11252;50.596;17.648;2022-08-19T10:01:30;16.08;;;3.47;;
22172;SDS011;11252;50.596;17.648;2022-08-19T10:03:59;8.73;;;3.83;;
22172;SDS011;11252;50.596;17.648;2022-08-19T10:06:34;12.77;;;3.35;;
22172;SDS011;11252;50.596;17.648;2022-08-19T10:09:13;15.52;;;4.97;;
22172;SDS011;11252;50.596;17.648;2022-08-19T10:11:51;12.27;;;3.80;;
22172;SDS011;11252;50.596;17.648;2022-08-19T10:14:20;10.55;;;3.63;;
22172;SDS011;11252;50.596;17.648;2022-08-19T10:16:50;6.85;;;3.00;;
22172;SDS011;11252;50.596;17.648;2022-08-19T10:19:18;12.50;;;3.72;;
22172;SDS011;11252;50.596;17.648;2022-08-19T10:21:51;11.77;;;3.80;;
22172;SDS011;11252;50.596;17.648;2022-08-19T10:24:25;10.73;;;3.80;;
22172;SDS011;11252;50.596;17.648;2022-08-19T10:26:54;14.95;;;5.40;;
22172;SDS011;11252;50.596;17.648;2022-08-19T10:29:25;7.28;;;3.08;;
22172;SDS011;11252;50.596;17.648;2022-08-19T10:32:02;11.38;;;3.28;;
22172;SDS011;11252;50.596;17.648;2022-08-19T10:34:38;10.85;;;3.17;;
22172;SDS011;11252;50.596;17.648;2022-08-19T10:37:15;8.32;;;3.05;;
22172;SDS011;11252;50.596;17.648;2022-08-19T10:39:54;17.77;;;2.83;;
22172;SDS011;11252;50.596;17.648;2022-08-19T10:42:21;8.30;;;2.83;;
22172;SDS011;11252;50.596;17.648;2022-08-19T10:44:49;11.27;;;3.05;;
22172;SDS011;11252;50.596;17.648;2022-08-19T10:47:17;15.63;;;3.60;;
22172;SDS011;11252;50.596;17.648;2022-08-19T10:49:54;9.98;;;3.22;;
22172;SDS011;11252;50.596;17.648;2022-08-19T10:52:42;15.93;;;3.90;;
22172;SDS011;11252;50.596;17.648;2022-08-19T10:55:15;17.98;;;3.58;;
22172;SDS011;11252;50.596;17.648;2022-08-19T10:58:03;12.55;;;3.28;;
22172;SDS011;11252;50.596;17.648;2022-08-19T11:00:31;11.52;;;3.45;;
22172;SDS011;11252;50.596;17.648;2022-08-19T11:02:59;12.10;;;3.10;;
22172;SDS011;11252;50.596;17.648;2022-08-19T11:05:26;10.18;;;3.35;;
22172;SDS011;11252;50.596;17.648;2022-08-19T11:07:55;14.23;;;3.67;;
22172;SDS011;11252;50.596;17.648;2022-08-19T11:10:22;11.45;;;3.90;;
22172;SDS011;11252;50.596;17.648;2022-08-19T11:12:50;11.70;;;3.60;;
22172;SDS011;11252;50.596;17.648;2022-08-19T11:15:21;16.35;;;4.18;;
22172;SDS011;11252;50.596;17.648;2022-08-19T11:17:49;13.30;;;4.40;;
22172;SDS011;11252;50.596;17.648;2022-08-19T11:20:20;15.95;;;3.45;;
22172;SDS011;11252;50.596;17.648;2022-08-19T11:22:51;9.90;;;3.72;;
22172;SDS011;11252;50.596;17.648;2022-08-19T11:25:20;14.73;;;3.40;;
22172;SDS011;11252;50.596;17.648;2022-08-19T11:27:48;12.02;;;3.25;;
22172;SDS011;11252;50.596;17.648;2022-08-19T11:30:18;11.18;;;3.45;;
22172;SDS011;11252;50.596;17.648;2022-08-19T11:32:45;16.55;;;4.18;;
22172;SDS011;11252;50.596;17.648;2022-08-19T11:35:15;13.43;;;3.92;;
22172;SDS011;11252;50.596;17.648;2022-08-19T11:37:43;11.15;;;3.97;;
22172;SDS011;11252;50.596;17.648;2022-08-19T11:40:10;13.73;;;3.67;;
22172;SDS011;11252;50.596;17.648;2022-08-19T11:42:38;11.32;;;4.63;;
22172;SDS011;11252;50.596;17.648;2022-08-19T11:45:25;12.50;;;4.50;;
22172;SDS011;11252;50.596;17.648;2022-08-19T11:47:54;13.07;;;3.88;;
22172;SDS011;11252;50.596;17.648;2022-08-19T11:50:23;17.35;;;4.47;;
22172;SDS011;11252;50.596;17.648;2022-08-19T11:52:53;12.13;;;4.15;;
22172;SDS011;11252;50.596;17.648;2022-08-19T11:55:22;17.83;;;4.70;;
22172;SDS011;11252;50.596;17.648;2022-08-19T11:57:50;15.90;;;4.38;;
22172;SDS011;11252;50.596;17.648;2022-08-19T12:00:17;18.88;;;4.88;;
22172;SDS011;11252;50.596;17.648;2022-08-19T12:02:45;12.50;;;4.00;;
22172;SDS011;11252;50.596;17.648;2022-08-19T12:05:12;7.97;;;4.30;;
22172;SDS011;11252;50.596;17.648;2022-08-19T12:07:40;18.13;;;5.22;;
22172;SDS011;11252;50.596;17.648;2022-08-19T12:10:08;14.00;;;3.97;;
22172;SDS011;11252;50.596;17.648;2022-08-19T12:12:36;12.52;;;3.97;;
22172;SDS011;11252;50.596;17.648;2022-08-19T12:15:12;15.52;;;3.92;;
22172;SDS011;11252;50.596;17.648;2022-08-19T12:17:40;14.20;;;4.18;;
22172;SDS011;11252;50.596;17.648;2022-08-19T12:20:09;14.70;;;4.32;;
22172;SDS011;11252;50.596;17.648;2022-08-19T12:22:39;12.88;;;4.05;;
22172;SDS011;11252;50.596;17.648;2022-08-19T12:25:09;11.43;;;3.88;;
22172;SDS011;11252;50.596;17.648;2022-08-19T12:27:38;13.55;;;3.75;;
22172;SDS011;11252;50.596;17.648;2022-08-19T12:30:09;18.10;;;3.97;;
22172;SDS011;11252;50.596;17.648;2022-08-19T12:32:38;13.13;;;4.03;;
22172;SDS011;11252;50.596;17.648;2022-08-19T12:35:07;10.00;;;3.83;;
22172;SDS011;11252;50.596;17.648;2022-08-19T12:37:38;15.85;;;4.47;;
22172;SDS011;11252;50.596;17.648;2022-08-19T12:40:23;13.40;;;3.92;;
22172;SDS011;11252;50.596;17.648;2022-08-19T12:42:52;7.57;;;3.40;;
22172;SDS011;11252;50.596;17.648;2022-08-19T12:45:20;18.60;;;4.57;;
22172;SDS011;11252;50.596;17.648;2022-08-19T12:47:48;15.10;;;4.57;;
22172;SDS011;11252;50.596;17.648;2022-08-19T12:50:20;15.15;;;3.72;;
22172;SDS011;11252;50.596;17.648;2022-08-19T12:52:47;17.48;;;4.28;;
22172;SDS011;11252;50.596;17.648;2022-08-19T12:55:15;18.33;;;4.78;;
22172;SDS011;11252;50.596;17.648;2022-08-19T12:57:45;10.45;;;4.25;;
22172;SDS011;11252;50.596;17.648;2022-08-19T13:00:14;10.07;;;3.75;;
22172;SDS011;11252;50.596;17.648;2022-08-19T13:02:44;8.85;;;4.60;;
22172;SDS011;11252;50.596;17.648;2022-08-19T13:05:14;10.63;;;4.13;;
22172;SDS011;11252;50.596;17.648;2022-08-19T13:07:42;8.32;;;3.70;;
22172;SDS011;11252;50.596;17.648;2022-08-19T13:10:11;11.95;;;4.68;;
22172;SDS011;11252;50.596;17.648;2022-08-19T13:12:42;8.50;;;4.13;;
22172;SDS011;11252;50.596;17.648;2022-08-19T13:15:11;13.13;;;4.15;;
22172;SDS011;11252;50.596;17.648;2022-08-19T13:17:40;11.05;;;4.60;;
22172;SDS011;11252;50.596;17.648;2022-08-19T13:20:09;12.32;;;4.78;;
22172;SDS011;11252;50.596;17.648;2022-08-19T13:22:37;10.40;;;4.75;;
22172;SDS011;11252;50.596;17.648;2022-08-19T13:25:05;15.10;;;4.65;;
22172;SDS011;11252;50.596;17.648;2022-08-19T13:27:34;10.55;;;4.22;;
22172;SDS011;11252;50.596;17.648;2022-08-19T13:30:03;9.45;;;4.07;;
22172;SDS011;11252;50.596;17.648;2022-08-19T13:32:51;18.98;;;5.97;;
22172;SDS011;11252;50.596;17.648;2022-08-19T13:35:38;10.68;;;4.03;;
22172;SDS011;11252;50.596;17.648;2022-08-19T13:38:14;10.38;;;4.40;;
22172;SDS011;11252;50.596;17.648;2022-08-19T13:40:47;15.85;;;4.85;;
22172;SDS011;11252;50.596;17.648;2022-08-19T13:43:17;7.50;;;4.15;;
22172;SDS011;11252;50.596;17.648;2022-08-19T13:45:49;9.90;;;5.28;;
22172;SDS011;11252;50.596;17.648;2022-08-19T13:48:20;10.25;;;4.15;;
22172;SDS011;11252;50.596;17.648;2022-08-19T13:50:48;14.52;;;4.80;;
22172;SDS011;11252;50.596;17.648;2022-08-19T13:53:16;10.85;;;4.95;;
22172;SDS011;11252;50.596;17.648;2022-08-19T13:55:44;6.90;;;4.10;;
22172;SDS011;11252;50.596;17.648;2022-08-19T13:58:12;12.98;;;4.38;;
22172;SDS011;11252;50.596;17.648;2022-08-19T14:00:42;12.00;;;4.50;;
22172;SDS011;11252;50.596;17.648;2022-08-19T14:03:11;19.13;;;5.38;;
22172;SDS011;11252;50.596;17.648;2022-08-19T14:05:39;11.38;;;4.55;;
22172;SDS011;11252;50.596;17.648;2022-08-19T14:08:06;8.70;;;4.25;;
22172;SDS011;11252;50.596;17.648;2022-08-19T14:10:35;6.22;;;4.40;;
22172;SDS011;11252;50.596;17.648;2022-08-19T14:13:03;11.88;;;4.60;;
22172;SDS011;11252;50.596;17.648;2022-08-19T14:15:31;14.13;;;5.15;;
22172;SDS011;11252;50.596;17.648;2022-08-19T14:17:58;11.18;;;4.75;;
22172;SDS011;11252;50.596;17.648;2022-08-19T14:20:26;8.52;;;4.53;;
22172;SDS011;11252;50.596;17.648;2022-08-19T14:22:54;7.30;;;4.25;;
22172;SDS011;11252;50.596;17.648;2022-08-19T14:25:23;6.80;;;4.22;;
22172;SDS011;11252;50.596;17.648;2022-08-19T14:27:53;10.15;;;4.30;;
22172;SDS011;11252;50.596;17.648;2022-08-19T14:30:22;10.05;;;4.88;;
22172;SDS011;11252;50.596;17.648;2022-08-19T14:32:56;9.15;;;5.10;;
22172;SDS011;11252;50.596;17.648;2022-08-19T14:35:25;9.30;;;5.18;;
22172;SDS011;11252;50.596;17.648;2022-08-19T14:37:56;10.43;;;4.78;;
22172;SDS011;11252;50.596;17.648;2022-08-19T14:40:25;17.27;;;5.32;;
22172;SDS011;11252;50.596;17.648;2022-08-19T14:42:58;12.07;;;4.90;;
22172;SDS011;11252;50.596;17.648;2022-08-19T14:45:32;13.60;;;5.38;;
22172;SDS011;11252;50.596;17.648;2022-08-19T14:48:04;13.32;;;4.53;;
22172;SDS011;11252;50.596;17.648;2022-08-19T14:50:32;11.20;;;5.00;;
22172;SDS011;11252;50.596;17.648;2022-08-19T14:53:04;10.18;;;4.13;;
22172;SDS011;11252;50.596;17.648;2022-08-19T14:55:40;9.25;;;4.45;;
22172;SDS011;11252;50.596;17.648;2022-08-19T14:58:09;8.10;;;4.40;;
22172;SDS011;11252;50.596;17.648;2022-08-19T15:00:56;8.10;;;5.00;;